createdAt,value
2023-03-11T00:01:11.474Z,2.20
2023-03-11T00:03:40.893Z,2.42
2023-03-11T00:06:08.743Z,2.30
2023-03-11T00:08:36.389Z,2.97
2023-03-11T00:11:04.336Z,2.20
2023-03-11T00:13:32.240Z,2.65
2023-03-11T00:16:01.752Z,2.20
2023-03-11T00:18:31.483Z,6.10
2023-03-11T00:21:01.310Z,3.03
2023-03-11T00:23:29.822Z,2.85
2023-03-11T00:25:59.727Z,4.05
2023-03-11T00:28:27.510Z,2.70
2023-03-11T00:30:55.481Z,3.30
2023-03-11T00:33:23.446Z,3.42
2023-03-11T00:35:51.222Z,3.93
2023-03-11T00:38:20.327Z,5.05
2023-03-11T00:40:49.412Z,2.92
2023-03-11T00:43:17.849Z,6.95
2023-03-11T00:45:45.688Z,3.80
2023-03-11T00:48:14.384Z,2.60
2023-03-11T00:50:42.095Z,4.22
2023-03-11T00:53:10.944Z,4.07
2023-03-11T00:55:40.003Z,3.47
2023-03-11T00:58:09.450Z,3.38
2023-03-11T01:00:37.102Z,3.25
2023-03-11T01:03:05.244Z,4.25
2023-03-11T01:05:34.582Z,3.58
2023-03-11T01:08:02.625Z,2.97
2023-03-11T01:10:31.379Z,4.55
2023-03-11T01:13:00.411Z,4.82
2023-03-11T01:15:30.892Z,2.97
2023-03-11T01:17:58.944Z,4.83
2023-03-11T01:20:26.659Z,4.10
2023-03-11T01:22:54.307Z,3.85
2023-03-11T01:25:23.990Z,3.67
2023-03-11T01:27:51.843Z,5.05
2023-03-11T01:30:23.523Z,2.97
2023-03-11T01:32:52.171Z,4.05
2023-03-11T01:35:22.289Z,3.70
2023-03-11T01:37:50.372Z,6.25
2023-03-11T01:43:06.898Z,2.45
2023-03-11T01:45:41.360Z,5.80
2023-03-11T01:48:10.330Z,4.38
2023-03-11T01:50:41.381Z,3.50
2023-03-11T01:53:10.407Z,5.85
2023-03-11T01:55:38.477Z,4.32
2023-03-11T01:58:11.476Z,3.70
2023-03-11T02:00:40.702Z,3.25
2023-03-11T02:03:12.173Z,3.15
2023-03-11T02:05:41.147Z,7.15
2023-03-11T02:08:09.485Z,3.65
2023-03-11T02:10:38.921Z,5.13
2023-03-11T02:13:06.683Z,3.42
2023-03-11T02:15:34.358Z,4.53
2023-03-11T02:18:05.983Z,4.87
2023-03-11T02:20:43.793Z,4.20
2023-03-11T02:23:14.178Z,3.72
2023-03-11T02:25:47.015Z,5.85
2023-03-11T02:28:18.176Z,4.45
2023-03-11T02:30:46.733Z,4.00
2023-03-11T02:33:16.644Z,7.40
2023-03-11T02:35:44.381Z,6.63
2023-03-11T02:38:12.108Z,4.32
2023-03-11T02:40:48.291Z,4.88
2023-03-11T02:43:20.793Z,4.22
2023-03-11T02:45:49.524Z,7.53
2023-03-11T02:48:17.997Z,2.97
2023-03-11T02:50:47.711Z,4.68
2023-03-11T02:53:15.939Z,5.85
2023-03-11T02:55:43.604Z,5.03
2023-03-11T02:58:11.260Z,8.88
2023-03-11T03:00:40.289Z,7.57
2023-03-11T03:03:08.732Z,5.63
2023-03-11T03:05:36.447Z,7.82
2023-03-11T03:08:04.457Z,5.78
2023-03-11T03:10:32.228Z,6.25
2023-03-11T03:13:00.067Z,8.07
2023-03-11T03:15:27.984Z,3.97
2023-03-11T03:17:57.298Z,3.40
2023-03-11T03:20:26.486Z,4.90
2023-03-11T03:22:54.186Z,5.30
2023-03-11T03:25:22.336Z,3.58
2023-03-11T03:27:50.410Z,6.07
2023-03-11T03:30:18.087Z,5.38
2023-03-11T03:32:46.012Z,6.47
2023-03-11T03:35:15.187Z,5.03
2023-03-11T03:37:42.858Z,5.40
2023-03-11T03:40:11.787Z,6.90
2023-03-11T03:42:40.171Z,5.60
2023-03-11T03:45:10.037Z,5.78
2023-03-11T03:47:37.870Z,6.82
2023-03-11T03:50:06.483Z,6.70
2023-03-11T03:52:36.306Z,5.35
2023-03-11T03:55:04.964Z,5.70
2023-03-11T03:57:32.767Z,5.63
2023-03-11T04:00:00.449Z,4.50
2023-03-11T04:02:28.569Z,5.45
2023-03-11T04:04:56.800Z,4.65
2023-03-11T04:07:24.531Z,6.85
2023-03-11T04:09:53.596Z,5.57
2023-03-11T04:12:21.265Z,8.40
2023-03-11T04:14:48.929Z,8.85
2023-03-11T04:17:21.731Z,7.15
2023-03-11T04:19:49.500Z,5.28
2023-03-11T04:22:17.229Z,5.28
2023-03-11T04:24:44.934Z,8.93
2023-03-11T04:27:14.125Z,5.78
2023-03-11T04:29:41.814Z,6.50
2023-03-11T04:32:09.517Z,6.55
2023-03-11T04:34:37.425Z,8.70
2023-03-11T04:37:05.340Z,5.72
2023-03-11T04:39:33.023Z,7.85
2023-03-11T04:42:03.537Z,5.35
2023-03-11T04:44:32.981Z,6.13
2023-03-11T04:47:00.677Z,8.27
2023-03-11T04:49:28.673Z,7.60
2023-03-11T04:51:56.400Z,6.90
2023-03-11T04:54:24.020Z,8.15
2023-03-11T04:56:51.622Z,5.65
2023-03-11T04:59:19.396Z,5.20
2023-03-11T05:01:48.457Z,5.85
2023-03-11T05:04:16.815Z,4.68
2023-03-11T05:06:44.648Z,6.20
2023-03-11T05:09:12.408Z,6.05
2023-03-11T05:11:40.107Z,7.15
2023-03-11T05:14:07.802Z,9.32
2023-03-11T05:16:35.416Z,7.93
2023-03-11T05:19:24.776Z,5.43
2023-03-11T05:21:52.664Z,5.95
2023-03-11T05:24:20.348Z,4.88
2023-03-11T05:26:48.649Z,5.28
2023-03-11T05:29:16.300Z,5.63
2023-03-11T05:31:43.970Z,5.95
2023-03-11T05:34:13.118Z,8.73
2023-03-11T05:36:40.991Z,6.95
2023-03-11T05:39:08.913Z,7.47
2023-03-11T05:41:36.549Z,6.75
2023-03-11T05:44:04.363Z,7.55
2023-03-11T05:46:32.275Z,6.80
2023-03-11T05:49:00.915Z,6.07
2023-03-11T05:51:30.153Z,6.00
2023-03-11T05:53:58.693Z,7.13
2023-03-11T05:56:26.462Z,7.10
2023-03-11T05:58:54.209Z,7.63
2023-03-11T06:01:21.857Z,6.23
2023-03-11T06:03:49.722Z,6.32
2023-03-11T06:06:17.744Z,5.67
2023-03-11T06:08:49.869Z,6.78
2023-03-11T06:11:18.154Z,8.13
2023-03-11T06:13:45.905Z,5.97
2023-03-11T06:16:14.187Z,5.97
2023-03-11T06:18:42.305Z,10.98
2023-03-11T06:21:17.046Z,9.30
2023-03-11T06:23:46.334Z,9.25
2023-03-11T06:26:16.494Z,8.13
2023-03-11T06:28:44.339Z,7.10
2023-03-11T06:31:15.752Z,7.25
2023-03-11T06:33:43.697Z,9.57
2023-03-11T06:36:14.403Z,6.60
2023-03-11T06:38:43.183Z,6.68
2023-03-11T06:41:12.408Z,8.25
2023-03-11T06:43:40.687Z,7.63
2023-03-11T06:46:12.844Z,8.97
2023-03-11T06:48:40.508Z,7.85
2023-03-11T06:51:08.385Z,7.90
2023-03-11T06:53:36.039Z,4.65
2023-03-11T06:56:06.139Z,6.10
2023-03-11T06:58:37.209Z,11.18
2023-03-11T07:01:07.711Z,7.72
2023-03-11T07:03:35.934Z,8.65
2023-03-11T07:06:06.243Z,6.93
2023-03-11T07:08:34.347Z,8.48
2023-03-11T07:11:05.677Z,8.80
2023-03-11T07:13:35.302Z,5.57
2023-03-11T07:16:04.999Z,7.00
2023-03-11T07:18:33.032Z,8.98
2023-03-11T07:21:02.694Z,34.17
2023-03-11T07:23:30.781Z,12.68
2023-03-11T07:25:58.580Z,9.70
2023-03-11T07:28:27.747Z,8.98
2023-03-11T07:30:57.667Z,8.90
2023-03-11T07:33:25.643Z,7.07
2023-03-11T07:35:53.632Z,8.45
2023-03-11T07:38:21.430Z,8.00
2023-03-11T07:40:49.197Z,8.38
2023-03-11T07:43:17.394Z,5.03
2023-03-11T07:45:45.099Z,9.68
2023-03-11T07:48:14.059Z,6.03
2023-03-11T07:50:41.726Z,7.63
2023-03-11T07:53:11.892Z,7.90
2023-03-11T07:55:39.522Z,8.45
2023-03-11T07:58:07.247Z,8.40
2023-03-11T08:00:34.994Z,7.03
2023-03-11T08:03:02.695Z,8.10
2023-03-11T08:05:34.619Z,9.00
2023-03-11T08:08:02.336Z,7.25
2023-03-11T08:10:30.176Z,7.60
2023-03-11T08:12:58.140Z,8.90
2023-03-11T08:15:26.791Z,7.13
2023-03-11T08:17:54.494Z,6.57
2023-03-11T08:20:22.266Z,5.60
2023-03-11T08:22:57.905Z,8.15
2023-03-11T08:25:25.951Z,6.72
2023-03-11T08:27:53.658Z,8.25
2023-03-11T08:30:21.636Z,6.47
2023-03-11T08:32:50.174Z,5.05
2023-03-11T08:35:18.643Z,12.18
2023-03-11T08:37:46.520Z,6.80
2023-03-11T08:40:17.012Z,6.53
2023-03-11T08:42:44.662Z,6.35
2023-03-11T08:45:13.425Z,6.22
2023-03-11T08:47:41.252Z,5.88
2023-03-11T08:50:12.937Z,6.80
2023-03-11T08:52:40.577Z,6.57
2023-03-11T08:55:11.219Z,5.95
2023-03-11T08:57:40.514Z,9.82
2023-03-11T09:00:12.689Z,7.67
2023-03-11T09:02:41.647Z,5.70
2023-03-11T09:05:10.070Z,6.35
2023-03-11T09:07:37.931Z,7.65
2023-03-11T09:10:06.932Z,9.23
2023-03-11T09:12:34.629Z,5.70
2023-03-11T09:15:03.804Z,4.07
2023-03-11T09:17:31.388Z,6.20
2023-03-11T09:19:59.180Z,6.30
2023-03-11T09:22:27.299Z,5.10
2023-03-11T09:24:55.145Z,7.25
2023-03-11T09:27:22.857Z,7.72
2023-03-11T09:29:50.668Z,3.33
2023-03-11T09:32:19.657Z,7.25
2023-03-11T09:34:47.345Z,4.50
2023-03-11T09:37:15.229Z,6.07
2023-03-11T09:39:42.850Z,5.70
2023-03-11T09:42:20.750Z,5.10
2023-03-11T09:44:58.946Z,4.75
2023-03-11T09:47:39.514Z,4.85
2023-03-11T09:50:25.676Z,5.10
2023-03-11T09:53:04.111Z,4.80
2023-03-11T09:55:37.697Z,5.43
2023-03-11T09:58:13.058Z,4.78
2023-03-11T10:00:41.260Z,4.63
2023-03-11T10:03:26.103Z,3.95
2023-03-11T10:05:59.012Z,3.67
2023-03-11T10:08:34.089Z,3.20
2023-03-11T10:11:13.908Z,4.93
2023-03-11T10:13:48.252Z,4.05
2023-03-11T10:16:22.749Z,3.90
2023-03-11T10:19:01.158Z,4.00
2023-03-11T10:21:45.335Z,3.75
2023-03-11T10:24:32.932Z,5.32
2023-03-11T10:27:04.360Z,4.77
2023-03-11T10:29:46.632Z,4.00
2023-03-11T10:32:19.845Z,6.22
2023-03-11T10:34:55.027Z,6.40
2023-03-11T10:37:33.180Z,4.97
2023-03-11T10:40:22.564Z,3.13
2023-03-11T10:42:53.293Z,6.40
2023-03-11T10:45:23.479Z,4.97
2023-03-11T10:47:51.369Z,4.53
2023-03-11T10:50:21.568Z,3.25
2023-03-11T10:53:08.866Z,2.78
2023-03-11T10:55:45.640Z,5.65
2023-03-11T10:58:15.297Z,4.57
2023-03-11T11:00:43.405Z,3.42
2023-03-11T11:03:21.815Z,3.40
2023-03-11T11:06:00.867Z,5.07
2023-03-11T11:08:29.215Z,3.72
2023-03-11T11:10:59.569Z,3.35
2023-03-11T11:13:30.207Z,4.47
2023-03-11T11:16:00.737Z,5.10
2023-03-11T11:18:32.178Z,3.78
2023-03-11T11:21:04.702Z,3.95
2023-03-11T11:23:36.063Z,5.47
2023-03-11T11:26:06.071Z,3.60
2023-03-11T11:28:34.814Z,3.80
2023-03-11T11:31:04.702Z,3.90
2023-03-11T11:33:34.185Z,4.07
2023-03-11T11:36:13.968Z,3.28
2023-03-11T11:38:42.274Z,3.22
2023-03-11T11:41:16.068Z,2.73
2023-03-11T11:43:50.607Z,4.05
2023-03-11T11:46:23.823Z,3.50
2023-03-11T11:49:01.037Z,5.30
2023-03-11T11:51:34.890Z,2.65
2023-03-11T11:54:07.166Z,3.65
2023-03-11T11:56:35.482Z,3.43
2023-03-11T11:59:03.288Z,4.05
2023-03-11T12:01:41.775Z,2.97
2023-03-11T12:04:31.220Z,4.57
2023-03-11T12:07:11.963Z,5.95
2023-03-11T12:09:48.980Z,9.13
2023-03-11T12:12:26.769Z,9.13
2023-03-11T12:15:01.564Z,4.57
2023-03-11T12:17:32.725Z,3.42
2023-03-11T12:20:04.610Z,3.13
2023-03-11T12:23:03.397Z,3.63
2023-03-11T12:25:37.797Z,4.55
2023-03-11T12:28:18.793Z,3.40
2023-03-11T12:30:50.405Z,3.67
2023-03-11T12:33:24.178Z,7.40
2023-03-11T12:35:56.055Z,4.97
2023-03-11T12:38:32.341Z,5.53
2023-03-11T12:41:08.335Z,4.90
2023-03-11T12:44:02.535Z,3.72
2023-03-11T12:47:10.225Z,4.28
2023-03-11T12:49:40.036Z,5.03
2023-03-11T12:52:20.991Z,3.60
2023-03-11T12:55:11.411Z,3.95
2023-03-11T12:57:52.587Z,3.10
2023-03-11T13:00:30.518Z,3.75
2023-03-11T13:03:33.428Z,3.63
2023-03-11T13:06:15.392Z,4.30
2023-03-11T13:08:48.433Z,3.70
2023-03-11T13:11:37.251Z,3.57
2023-03-11T13:14:30.180Z,4.05
2023-03-11T13:17:18.154Z,4.13
2023-03-11T13:19:51.360Z,4.43
2023-03-11T13:22:45.331Z,5.10
2023-03-11T13:25:32.160Z,7.20
2023-03-11T13:28:15.283Z,4.97
2023-03-11T13:30:51.505Z,5.13
2023-03-11T13:33:36.597Z,5.33
2023-03-11T13:36:15.588Z,5.43
2023-03-11T13:39:24.907Z,6.00
2023-03-11T13:41:52.847Z,7.07
2023-03-11T13:44:30.360Z,3.70
2023-03-11T13:47:03.852Z,4.78
2023-03-11T13:49:39.545Z,5.07
2023-03-11T13:52:10.632Z,6.00
2023-03-11T13:54:46.584Z,4.28
2023-03-11T13:57:25.044Z,6.85
2023-03-11T13:59:55.342Z,4.97
2023-03-11T14:02:25.421Z,5.75
2023-03-11T14:04:57.125Z,7.53
2023-03-11T14:07:31.681Z,6.43
2023-03-11T14:10:18.202Z,3.83
2023-03-11T14:12:46.072Z,5.55
2023-03-11T14:15:20.311Z,4.60
2023-03-11T14:17:48.883Z,6.30
2023-03-11T14:20:20.127Z,5.30
2023-03-11T14:22:50.092Z,4.32
2023-03-11T14:25:20.642Z,4.53
2023-03-11T14:27:53.981Z,4.80
2023-03-11T14:30:26.994Z,3.85
2023-03-11T14:33:00.578Z,5.60
2023-03-11T14:35:29.068Z,6.00
2023-03-11T14:37:56.994Z,3.80
2023-03-11T14:40:27.703Z,3.65
2023-03-11T14:42:58.750Z,5.93
2023-03-11T14:45:30.768Z,3.72
2023-03-11T14:48:04.046Z,4.50
2023-03-11T14:50:35.166Z,7.00
2023-03-11T14:53:07.512Z,6.03
2023-03-11T14:55:41.055Z,4.88
2023-03-11T14:58:17.428Z,5.72
2023-03-11T15:00:50.308Z,5.07
2023-03-11T15:03:24.556Z,13.80
2023-03-11T15:05:55.854Z,7.15
2023-03-11T15:08:28.062Z,5.88
2023-03-11T15:11:04.484Z,7.43
2023-03-11T15:13:32.379Z,5.67
2023-03-11T15:16:03.080Z,6.33
2023-03-11T15:18:33.450Z,6.15
2023-03-11T15:21:07.862Z,4.32
2023-03-11T15:23:37.089Z,5.72
2023-03-11T15:26:06.699Z,8.15
2023-03-11T15:28:37.187Z,7.05
2023-03-11T15:31:31.346Z,6.13
2023-03-11T15:34:10.434Z,5.15
2023-03-11T15:36:40.269Z,4.13
2023-03-11T15:39:14.534Z,5.97
2023-03-11T15:41:42.439Z,4.88
2023-03-11T15:44:24.654Z,8.10
2023-03-11T15:46:54.100Z,6.72
2023-03-11T15:49:22.560Z,5.97
2023-03-11T15:51:50.292Z,6.30
2023-03-11T15:54:17.912Z,6.93
2023-03-11T15:56:46.366Z,4.50
2023-03-11T15:59:16.171Z,7.03
2023-03-11T16:01:43.985Z,5.30
2023-03-11T16:04:17.745Z,6.05
2023-03-11T16:06:49.516Z,4.68
2023-03-11T16:09:22.609Z,4.65
2023-03-11T16:11:50.314Z,6.88
2023-03-11T16:14:19.955Z,4.38
2023-03-11T16:16:48.248Z,6.43
2023-03-11T16:19:17.235Z,5.75
2023-03-11T16:21:49.401Z,7.25
2023-03-11T16:24:20.855Z,7.35
2023-03-11T16:26:49.158Z,5.30
2023-03-11T16:29:19.586Z,5.85
2023-03-11T16:31:49.190Z,8.77
2023-03-11T16:34:19.048Z,5.20
2023-03-11T16:36:46.675Z,4.93
2023-03-11T16:39:14.771Z,4.30
2023-03-11T16:41:44.130Z,9.05
2023-03-11T16:44:12.682Z,7.13
2023-03-11T16:46:40.422Z,6.78
2023-03-11T16:49:08.114Z,6.93
2023-03-11T16:51:37.114Z,7.40
2023-03-11T16:54:04.877Z,8.57
2023-03-11T16:56:32.551Z,8.85
2023-03-11T16:59:01.195Z,6.75
2023-03-11T17:01:28.869Z,7.57
2023-03-11T17:03:56.535Z,7.32
2023-03-11T17:06:24.220Z,8.97
2023-03-11T17:08:53.322Z,10.85
2023-03-11T17:11:22.817Z,16.55
2023-03-11T17:13:51.812Z,9.05
2023-03-11T17:16:19.468Z,11.93
2023-03-11T17:18:47.371Z,8.23
2023-03-11T17:21:16.614Z,7.18
2023-03-11T17:23:44.972Z,7.20
2023-03-11T17:26:16.390Z,7.67
2023-03-11T17:28:44.936Z,7.88
2023-03-11T17:31:13.612Z,8.82
2023-03-11T17:33:41.616Z,7.05
2023-03-11T17:36:13.568Z,6.73
2023-03-11T17:38:41.200Z,13.57
2023-03-11T17:41:09.724Z,8.80
2023-03-11T17:43:38.690Z,7.95
2023-03-11T17:46:08.296Z,8.55
2023-03-11T17:48:35.938Z,9.05
2023-03-11T17:51:06.990Z,11.27
2023-03-11T17:53:35.811Z,13.77
2023-03-11T17:56:04.009Z,8.57
2023-03-11T17:58:31.917Z,9.63
2023-03-11T18:01:04.117Z,13.55
2023-03-11T18:03:31.780Z,14.15
2023-03-11T18:06:01.557Z,13.05
2023-03-11T18:08:30.195Z,10.88
2023-03-11T18:11:00.563Z,10.88
2023-03-11T18:13:28.381Z,10.70
2023-03-11T18:16:01.911Z,10.07
2023-03-11T18:18:30.552Z,17.42
2023-03-11T18:21:02.127Z,12.18
2023-03-11T18:23:32.831Z,19.45
2023-03-11T18:26:01.223Z,18.65
2023-03-11T18:28:29.580Z,11.77
2023-03-11T18:30:57.553Z,9.45
2023-03-11T18:33:26.893Z,17.50
2023-03-11T18:35:54.817Z,12.30
2023-03-11T18:38:22.540Z,18.95
2023-03-11T18:40:57.717Z,13.38
2023-03-11T18:43:25.519Z,16.30
2023-03-11T18:45:53.223Z,13.18
2023-03-11T18:48:21.294Z,16.13
2023-03-11T18:50:53.850Z,19.38
2023-03-11T18:53:24.863Z,62.70
2023-03-11T18:55:53.584Z,78.50
2023-03-11T18:58:21.312Z,230.55
2023-03-11T19:00:49.134Z,83.00
2023-03-11T19:03:17.255Z,112.90
2023-03-11T19:05:50.623Z,23.25
2023-03-11T19:08:20.385Z,23.50
2023-03-11T19:10:48.173Z,20.73
2023-03-11T19:13:19.246Z,18.70
2023-03-11T19:15:47.710Z,13.80
2023-03-11T19:18:16.098Z,87.70
2023-03-11T19:20:44.407Z,17.52
2023-03-11T19:23:12.242Z,12.88
2023-03-11T19:25:50.627Z,9.73
2023-03-11T19:28:25.382Z,13.15
2023-03-11T19:30:54.592Z,14.23
2023-03-11T19:33:23.259Z,15.90
2023-03-11T19:35:53.466Z,22.42
2023-03-11T19:38:21.681Z,35.58
2023-03-11T19:40:54.268Z,29.60
2023-03-11T19:43:23.894Z,18.00
2023-03-11T19:45:51.812Z,18.02
2023-03-11T19:48:20.344Z,12.98
2023-03-11T19:50:49.634Z,13.25
2023-03-11T19:53:17.940Z,12.57
2023-03-11T19:55:46.309Z,16.33
2023-03-11T19:58:16.002Z,10.18
2023-03-11T20:00:45.422Z,11.95
2023-03-11T20:03:14.734Z,11.82
2023-03-11T20:05:44.878Z,12.27
2023-03-11T20:08:18.316Z,11.20
2023-03-11T20:10:48.906Z,12.60
2023-03-11T20:13:20.200Z,14.63
2023-03-11T20:15:48.927Z,19.05
2023-03-11T20:18:18.081Z,26.83
2023-03-11T20:20:46.917Z,29.60
2023-03-11T20:23:15.752Z,29.88
2023-03-11T20:25:43.894Z,20.15
2023-03-11T20:28:11.779Z,12.65
2023-03-11T20:30:41.331Z,32.88
2023-03-11T20:33:09.640Z,14.77
2023-03-11T20:35:37.572Z,17.27
2023-03-11T20:38:05.556Z,21.83
2023-03-11T20:40:33.542Z,12.00
2023-03-11T20:43:02.768Z,11.70
2023-03-11T20:45:30.928Z,9.32
2023-03-11T20:48:00.184Z,10.38
2023-03-11T20:50:27.972Z,14.55
2023-03-11T20:52:55.624Z,32.90
2023-03-11T20:55:23.739Z,38.63
2023-03-11T20:57:53.652Z,30.55
2023-03-11T21:00:22.074Z,29.30
2023-03-11T21:02:50.298Z,11.70
2023-03-11T21:05:19.914Z,7.75
2023-03-11T21:07:49.272Z,9.10
2023-03-11T21:10:17.168Z,7.75
2023-03-11T21:12:45.046Z,8.13
2023-03-11T21:15:13.300Z,9.00
2023-03-11T21:17:41.590Z,7.60
2023-03-11T21:20:11.277Z,7.55
2023-03-11T21:22:40.596Z,9.50
2023-03-11T21:25:09.136Z,7.65
2023-03-11T21:27:37.154Z,7.72
2023-03-11T21:30:05.907Z,10.68
2023-03-11T21:32:33.810Z,7.75
2023-03-11T21:35:02.444Z,7.90
2023-03-11T21:37:30.397Z,7.30
2023-03-11T21:39:59.607Z,6.72
2023-03-11T21:42:30.547Z,7.18
2023-03-11T21:44:58.499Z,8.70
2023-03-11T21:47:26.384Z,10.77
2023-03-11T21:49:54.106Z,10.30
2023-03-11T21:52:21.761Z,13.68
2023-03-11T21:54:49.607Z,16.17
2023-03-11T21:57:18.902Z,19.23
2023-03-11T21:59:46.782Z,19.70
2023-03-11T22:02:16.537Z,18.53
2023-03-11T22:04:44.923Z,14.27
2023-03-11T22:07:12.894Z,15.10
2023-03-11T22:09:41.011Z,17.85
2023-03-11T22:12:09.184Z,13.77
2023-03-11T22:14:38.462Z,10.65
2023-03-11T22:17:06.360Z,12.40
2023-03-11T22:19:34.162Z,15.98
2023-03-11T22:22:01.848Z,17.48
2023-03-11T22:24:29.532Z,18.63
2023-03-11T22:26:57.553Z,21.40
2023-03-11T22:29:25.194Z,27.27
2023-03-11T22:31:54.256Z,20.77
2023-03-11T22:34:21.937Z,25.53
2023-03-11T22:36:49.857Z,22.98
2023-03-11T22:39:17.599Z,34.77
2023-03-11T22:41:45.499Z,30.93
2023-03-11T22:44:13.112Z,20.83
2023-03-11T22:46:41.160Z,11.37
2023-03-11T22:49:10.431Z,27.10
2023-03-11T22:51:38.219Z,27.75
2023-03-11T22:54:05.939Z,15.48
2023-03-11T22:56:33.631Z,15.85
2023-03-11T22:59:01.322Z,16.70
2023-03-11T23:01:29.104Z,14.68
2023-03-11T23:03:56.928Z,11.13
2023-03-11T23:06:26.144Z,17.17
2023-03-11T23:08:54.533Z,14.80
2023-03-11T23:11:23.265Z,12.00
2023-03-11T23:13:52.104Z,12.32
2023-03-11T23:16:22.321Z,15.15
2023-03-11T23:18:53.478Z,9.32
2023-03-11T23:21:23.164Z,11.57
2023-03-11T23:23:52.612Z,19.17
2023-03-11T23:26:21.777Z,14.07
2023-03-11T23:28:51.158Z,11.60
2023-03-11T23:31:20.577Z,15.73
2023-03-11T23:33:48.778Z,13.18
2023-03-11T23:36:18.617Z,13.43
2023-03-11T23:38:46.510Z,12.35
2023-03-11T23:41:17.716Z,10.02
2023-03-11T23:43:45.590Z,10.75
2023-03-11T23:46:13.756Z,8.88
2023-03-11T23:48:41.803Z,9.20
2023-03-11T23:51:09.696Z,8.23
2023-03-11T23:53:37.970Z,6.57
2023-03-11T23:56:10.773Z,9.00
2023-03-11T23:58:39.801Z,6.03
